createdAt,value
2019-05-15T00:02:27.959Z,9.60
2019-05-15T00:04:58.518Z,15.58
2019-05-15T00:07:29.353Z,16.60
2019-05-15T00:09:58.636Z,13.05
2019-05-15T00:12:28.391Z,11.57
2019-05-15T00:14:58.182Z,11.85
2019-05-15T00:17:28.332Z,6.30
2019-05-15T00:19:58.238Z,9.63
2019-05-15T00:22:29.241Z,7.78
2019-05-15T00:24:58.554Z,4.03
2019-05-15T00:27:28.519Z,11.10
2019-05-15T00:29:57.902Z,10.45
2019-05-15T00:32:28.259Z,5.83
2019-05-15T00:34:58.242Z,9.60
2019-05-15T00:37:28.913Z,9.05
2019-05-15T00:39:59.234Z,10.38
2019-05-15T00:42:28.499Z,15.05
2019-05-15T00:44:59.985Z,8.70
2019-05-15T00:47:29.098Z,13.90
2019-05-15T00:49:58.512Z,14.70
2019-05-15T00:52:28.312Z,9.05
2019-05-15T00:54:59.002Z,6.87
2019-05-15T00:57:29.479Z,9.25
2019-05-15T00:59:59.085Z,7.20
2019-05-15T01:02:28.641Z,11.73
2019-05-15T01:04:58.569Z,15.10
2019-05-15T01:07:28.234Z,12.47
2019-05-15T01:09:57.960Z,11.90
2019-05-15T01:12:29.171Z,13.00
2019-05-15T01:14:58.387Z,10.88
2019-05-15T01:17:29.072Z,17.17
2019-05-15T01:20:00.032Z,10.38
2019-05-15T01:22:29.192Z,12.33
2019-05-15T01:24:59.036Z,12.45
2019-05-15T01:27:29.151Z,15.58
2019-05-15T01:30:00.520Z,15.15
2019-05-15T01:32:30.088Z,14.50
2019-05-15T01:34:59.072Z,14.07
2019-05-15T01:37:28.325Z,14.93
2019-05-15T01:39:58.135Z,11.45
2019-05-15T01:42:28.038Z,13.25
2019-05-15T01:44:58.947Z,14.65
2019-05-15T01:47:28.522Z,12.75
2019-05-15T01:49:58.278Z,8.95
2019-05-15T01:52:28.000Z,11.10
2019-05-15T01:54:58.281Z,11.93
2019-05-15T01:57:28.747Z,11.73
2019-05-15T02:00:00.748Z,11.05
2019-05-15T02:02:28.607Z,8.68
2019-05-15T02:04:59.198Z,10.43
2019-05-15T02:07:28.297Z,10.68
2019-05-15T02:09:58.252Z,11.48
2019-05-15T02:12:28.537Z,12.85
2019-05-15T02:14:58.738Z,12.03
2019-05-15T02:17:28.529Z,11.33
2019-05-15T02:19:58.708Z,14.10
2019-05-15T02:22:28.291Z,12.28
2019-05-15T02:24:59.093Z,15.32
2019-05-15T02:27:29.421Z,11.75
2019-05-15T02:30:16.228Z,10.05
2019-05-15T02:32:30.220Z,10.45
2019-05-15T02:34:59.497Z,13.35
2019-05-15T02:37:29.485Z,13.48
2019-05-15T02:39:59.018Z,15.20
2019-05-15T02:42:28.992Z,14.13
2019-05-15T02:44:58.986Z,13.80
2019-05-15T02:47:29.107Z,18.77
2019-05-15T02:49:59.339Z,11.57
2019-05-15T02:52:29.598Z,6.50
2019-05-15T02:54:59.941Z,7.25
2019-05-15T02:57:30.022Z,8.33
2019-05-15T02:59:59.743Z,8.75
2019-05-15T03:02:29.213Z,6.05
2019-05-15T03:04:59.482Z,8.48
2019-05-15T03:07:29.515Z,11.25
2019-05-15T03:09:59.930Z,9.25
2019-05-15T03:12:29.315Z,12.15
2019-05-15T03:14:59.866Z,11.80
2019-05-15T03:17:29.814Z,9.50
2019-05-15T03:19:59.124Z,7.83
2019-05-15T03:22:29.405Z,12.13
2019-05-15T03:24:59.233Z,8.05
2019-05-15T03:27:30.372Z,7.33
2019-05-15T03:29:59.423Z,9.88
2019-05-15T03:32:40.938Z,6.97
2019-05-15T03:35:04.583Z,7.00
2019-05-15T03:37:33.174Z,9.60
2019-05-15T03:40:00.641Z,7.37
2019-05-15T03:42:29.674Z,10.53
2019-05-15T03:44:59.641Z,11.75
2019-05-15T03:47:30.108Z,6.35
2019-05-15T03:50:00.129Z,7.97
2019-05-15T03:52:29.564Z,10.55
2019-05-15T03:54:59.258Z,9.48
2019-05-15T03:57:30.596Z,14.03
2019-05-15T04:00:03.239Z,11.03
2019-05-15T04:02:32.545Z,12.28
2019-05-15T04:05:02.333Z,9.33
2019-05-15T04:07:31.542Z,12.58
2019-05-15T04:10:00.842Z,13.85
2019-05-15T04:12:30.850Z,12.60
2019-05-15T04:15:00.426Z,8.95
2019-05-15T04:17:29.726Z,5.28
2019-05-15T04:19:59.046Z,11.40
2019-05-15T04:22:29.069Z,12.63
2019-05-15T04:24:59.372Z,11.60
2019-05-15T04:27:29.291Z,12.70
2019-05-15T04:29:59.284Z,8.03
2019-05-15T04:32:29.000Z,10.58
2019-05-15T04:34:59.361Z,9.23
2019-05-15T04:37:29.886Z,11.12
2019-05-15T04:40:00.246Z,16.50
2019-05-15T04:42:30.071Z,13.48
2019-05-15T04:44:59.720Z,17.20
2019-05-15T04:47:30.304Z,14.25
2019-05-15T04:49:59.625Z,13.03
2019-05-15T04:52:30.385Z,16.97
2019-05-15T04:54:59.770Z,11.53
2019-05-15T04:57:33.780Z,11.80
2019-05-15T04:59:59.728Z,12.28
2019-05-15T05:02:32.304Z,14.65
2019-05-15T05:04:59.584Z,11.95
2019-05-15T05:07:29.537Z,11.57
2019-05-15T05:09:59.564Z,10.28
2019-05-15T05:12:29.012Z,11.50
2019-05-15T05:14:58.809Z,14.03
2019-05-15T05:17:28.944Z,11.63
2019-05-15T05:19:58.401Z,12.88
2019-05-15T05:22:28.201Z,13.60
2019-05-15T05:24:58.536Z,13.98
2019-05-15T05:27:28.833Z,8.00
2019-05-15T05:29:58.703Z,11.70
2019-05-15T05:32:34.635Z,7.12
2019-05-15T05:34:58.966Z,9.53
2019-05-15T05:37:28.792Z,12.80
2019-05-15T05:39:58.039Z,10.15
2019-05-15T05:42:29.146Z,8.35
2019-05-15T05:44:58.257Z,7.50
2019-05-15T05:47:28.824Z,8.48
2019-05-15T05:49:58.215Z,10.00
2019-05-15T05:52:28.008Z,8.98
2019-05-15T05:54:58.100Z,10.80
2019-05-15T05:57:27.973Z,7.28
2019-05-15T05:59:58.287Z,6.75
2019-05-15T06:02:28.015Z,8.05
2019-05-15T06:04:58.276Z,8.98
2019-05-15T06:07:27.985Z,7.28
2019-05-15T06:09:58.180Z,6.05
2019-05-15T06:12:28.148Z,6.92
2019-05-15T06:14:58.036Z,5.17
2019-05-15T06:17:28.064Z,7.80
2019-05-15T06:19:58.622Z,5.22
2019-05-15T06:22:28.092Z,6.90
2019-05-15T06:24:57.950Z,6.17
2019-05-15T06:27:27.996Z,7.30
2019-05-15T06:29:58.039Z,7.62
2019-05-15T06:32:28.972Z,12.70
2019-05-15T06:34:58.377Z,9.73
2019-05-15T06:37:28.664Z,8.60
2019-05-15T06:39:58.802Z,8.53
2019-05-15T06:42:28.399Z,9.68
2019-05-15T06:44:58.976Z,9.30
2019-05-15T06:47:28.494Z,8.70
2019-05-15T06:49:57.987Z,8.08
2019-05-15T06:52:28.463Z,7.50
2019-05-15T06:54:59.250Z,8.05
2019-05-15T06:57:29.406Z,7.17
2019-05-15T06:59:59.001Z,8.00
2019-05-15T07:02:28.614Z,13.18
2019-05-15T07:04:58.535Z,9.98
2019-05-15T07:07:28.780Z,9.30
2019-05-15T07:09:59.746Z,8.35
2019-05-15T07:12:28.938Z,6.67
2019-05-15T07:14:58.312Z,8.63
2019-05-15T07:17:28.750Z,6.95
2019-05-15T07:19:59.193Z,10.75
2019-05-15T07:22:29.004Z,8.25
2019-05-15T07:24:58.562Z,9.55
2019-05-15T07:27:29.129Z,10.85
2019-05-15T07:29:59.000Z,7.75
2019-05-15T07:32:28.586Z,22.80
2019-05-15T07:34:58.035Z,9.25
2019-05-15T07:37:28.991Z,9.05
2019-05-15T07:39:59.107Z,9.00
2019-05-15T07:42:29.152Z,9.40
2019-05-15T07:44:59.081Z,9.65
2019-05-15T07:47:29.167Z,10.50
2019-05-15T07:49:59.120Z,8.10
2019-05-15T07:52:28.839Z,10.95
2019-05-15T07:54:58.430Z,9.25
2019-05-15T07:57:29.916Z,9.78
2019-05-15T07:59:58.859Z,10.05
2019-05-15T08:02:28.442Z,9.48
2019-05-15T08:04:57.743Z,10.05
2019-05-15T08:07:27.875Z,12.35
2019-05-15T08:09:59.233Z,10.08
2019-05-15T08:12:28.397Z,9.65
2019-05-15T08:14:58.243Z,11.88
2019-05-15T08:17:28.931Z,14.05
2019-05-15T08:19:58.369Z,9.28
2019-05-15T08:22:28.435Z,12.25
2019-05-15T08:24:59.179Z,9.78
2019-05-15T08:27:29.974Z,11.93
2019-05-15T08:29:59.410Z,14.63
2019-05-15T08:32:29.200Z,11.75
2019-05-15T08:34:58.914Z,12.28
2019-05-15T08:37:29.269Z,11.55
2019-05-15T08:39:59.598Z,14.47
2019-05-15T08:42:32.448Z,16.35
2019-05-15T08:45:02.286Z,14.60
2019-05-15T08:47:32.158Z,17.62
2019-05-15T08:50:01.685Z,15.13
2019-05-15T08:52:31.440Z,14.20
2019-05-15T08:55:00.985Z,13.40
2019-05-15T08:57:30.466Z,15.78
2019-05-15T08:59:59.920Z,12.45
2019-05-15T09:02:29.299Z,12.90
2019-05-15T09:04:58.485Z,13.70
2019-05-15T09:07:28.735Z,16.50
2019-05-15T09:09:58.409Z,14.20
2019-05-15T09:12:29.499Z,14.65
2019-05-15T09:14:58.755Z,13.90
2019-05-15T09:17:28.616Z,12.88
2019-05-15T09:19:58.812Z,13.03
2019-05-15T09:22:29.176Z,16.30
2019-05-15T09:24:59.128Z,17.02
2019-05-15T09:27:28.355Z,16.10
2019-05-15T09:29:59.873Z,14.40
2019-05-15T09:32:29.650Z,13.93
2019-05-15T09:34:59.541Z,14.23
2019-05-15T09:37:33.521Z,11.48
2019-05-15T09:40:01.853Z,15.58
2019-05-15T09:42:31.417Z,12.58
2019-05-15T09:45:00.566Z,15.88
2019-05-15T09:47:29.858Z,18.10
2019-05-15T09:49:59.443Z,16.42
2019-05-15T09:52:30.102Z,16.12
2019-05-15T09:54:59.932Z,15.68
2019-05-15T09:57:30.213Z,18.15
2019-05-15T09:59:59.825Z,17.02
2019-05-15T10:02:28.876Z,13.68
2019-05-15T10:05:06.710Z,13.95
2019-05-15T10:07:29.002Z,15.50
2019-05-15T10:09:58.609Z,16.48
2019-05-15T10:12:34.489Z,15.65
2019-05-15T10:14:59.255Z,17.85
2019-05-15T10:17:29.069Z,13.15
2019-05-15T10:19:58.421Z,13.90
2019-05-15T10:22:28.310Z,14.68
2019-05-15T10:24:58.722Z,12.98
2019-05-15T10:27:28.759Z,16.67
2019-05-15T10:29:58.838Z,14.00
2019-05-15T10:32:28.968Z,16.50
2019-05-15T10:34:58.674Z,12.63
2019-05-15T10:37:28.643Z,15.18
2019-05-15T10:39:58.463Z,13.22
2019-05-15T10:42:28.960Z,14.75
2019-05-15T10:44:58.874Z,14.98
2019-05-15T10:47:28.938Z,13.95
2019-05-15T10:50:00.163Z,15.65
2019-05-15T10:52:29.184Z,11.97
2019-05-15T10:55:00.947Z,15.63
2019-05-15T10:57:29.633Z,11.43
2019-05-15T10:59:59.137Z,14.40
2019-05-15T11:02:29.047Z,13.65
2019-05-15T11:04:58.763Z,13.98
2019-05-15T11:07:28.453Z,13.93
2019-05-15T11:09:58.240Z,13.25
2019-05-15T11:12:29.273Z,10.93
2019-05-15T11:14:58.137Z,10.08
2019-05-15T11:17:29.067Z,12.55
2019-05-15T11:19:58.613Z,11.50
2019-05-15T11:22:29.852Z,10.25
2019-05-15T11:24:59.465Z,10.58
2019-05-15T11:27:31.392Z,14.40
2019-05-15T11:29:59.624Z,10.32
2019-05-15T11:32:29.406Z,10.68
2019-05-15T11:34:58.701Z,14.33
2019-05-15T11:37:28.361Z,11.33
2019-05-15T11:39:58.947Z,10.13
2019-05-15T11:42:28.846Z,8.90
2019-05-15T11:44:58.488Z,10.70
2019-05-15T11:47:28.023Z,9.78
2019-05-15T11:49:58.444Z,12.78
2019-05-15T11:52:29.375Z,10.38
2019-05-15T11:55:02.536Z,10.82
2019-05-15T11:57:42.363Z,13.15
2019-05-15T12:00:02.253Z,16.52
2019-05-15T12:02:31.801Z,12.30
2019-05-15T12:05:02.437Z,10.95
2019-05-15T12:07:31.719Z,11.12
2019-05-15T12:10:00.962Z,10.28
2019-05-15T12:12:32.085Z,10.58
2019-05-15T12:15:01.046Z,11.10
2019-05-15T12:17:30.376Z,11.53
2019-05-15T12:20:05.903Z,11.20
2019-05-15T12:22:30.648Z,10.88
2019-05-15T12:25:00.710Z,11.85
2019-05-15T12:27:30.561Z,9.98
2019-05-15T12:30:00.033Z,12.40
2019-05-15T12:35:00.531Z,9.80
2019-05-15T12:37:29.731Z,16.45
2019-05-15T13:00:12.530Z,10.82
2019-05-15T13:02:41.874Z,11.45
2019-05-15T13:05:11.026Z,11.80
2019-05-15T13:07:40.104Z,13.03
2019-05-15T13:10:09.535Z,13.32
2019-05-15T13:12:54.165Z,12.95
2019-05-15T13:15:10.097Z,10.38
2019-05-15T13:17:39.161Z,12.20
2019-05-15T13:20:08.456Z,10.50
2019-05-15T13:22:39.371Z,9.33
2019-05-15T13:25:09.048Z,9.15
2019-05-15T13:27:38.560Z,10.18
2019-05-15T13:30:11.016Z,11.55
2019-05-15T13:32:40.986Z,12.28
2019-05-15T13:35:11.317Z,9.70
2019-05-15T13:37:40.628Z,8.48
2019-05-15T13:40:09.784Z,8.48
2019-05-15T13:42:39.182Z,10.08
2019-05-15T13:45:12.616Z,10.40
2019-05-15T13:47:40.392Z,8.50
2019-05-15T13:50:09.848Z,11.90
2019-05-15T13:52:40.641Z,9.95
2019-05-15T13:55:10.178Z,7.25
2019-05-15T13:57:39.200Z,9.20
2019-05-15T14:00:09.767Z,8.15
2019-05-15T14:02:38.993Z,6.72
2019-05-15T14:05:09.693Z,10.35
2019-05-15T14:07:49.056Z,10.50
2019-05-15T14:10:11.328Z,11.63
2019-05-15T14:12:40.287Z,11.55
2019-05-15T14:15:10.216Z,10.80
2019-05-15T14:17:39.416Z,11.38
2019-05-15T14:20:09.448Z,9.20
2019-05-15T14:22:39.171Z,8.58
2019-05-15T14:25:09.459Z,11.05
2019-05-15T14:27:39.673Z,10.32
2019-05-15T14:30:10.992Z,8.93
2019-05-15T14:32:40.122Z,8.00
2019-05-15T14:35:09.879Z,9.70
2019-05-15T14:37:39.176Z,13.48
2019-05-15T14:40:09.792Z,7.65
2019-05-15T14:42:39.752Z,8.78
2019-05-15T14:45:12.328Z,10.60
2019-05-15T14:47:41.448Z,12.40
2019-05-15T14:50:11.161Z,13.15
2019-05-15T14:52:40.440Z,11.55
2019-05-15T14:55:12.850Z,10.90
2019-05-15T14:57:42.128Z,10.48
2019-05-15T15:00:11.794Z,9.03
2019-05-15T15:02:40.765Z,8.80
2019-05-15T15:05:10.890Z,5.30
2019-05-15T15:07:39.913Z,9.10
2019-05-15T15:10:09.120Z,9.10
2019-05-15T15:12:39.750Z,9.78
2019-05-15T15:15:10.595Z,9.80
2019-05-15T15:17:39.856Z,6.87
2019-05-15T15:20:09.384Z,5.62
2019-05-15T15:22:39.651Z,8.08
2019-05-15T15:25:10.956Z,7.97
2019-05-15T15:27:40.455Z,8.03
2019-05-15T15:30:10.898Z,7.78
2019-05-15T15:32:40.593Z,8.73
2019-05-15T15:35:09.825Z,10.48
2019-05-15T15:37:39.275Z,8.50
2019-05-15T15:40:09.936Z,7.53
2019-05-15T15:42:39.631Z,8.70
2019-05-15T15:45:09.761Z,11.08
2019-05-15T15:47:39.218Z,7.97
2019-05-15T15:50:10.020Z,10.85
2019-05-15T15:52:39.468Z,7.72
2019-05-15T15:55:09.314Z,10.23
2019-05-15T15:57:39.683Z,7.12
2019-05-15T16:00:10.626Z,7.03
2019-05-15T16:02:41.267Z,8.43
2019-05-15T16:05:11.635Z,8.98
2019-05-15T16:07:43.393Z,11.05
2019-05-15T16:10:12.063Z,8.90
2019-05-15T16:12:41.380Z,10.65
2019-05-15T16:15:11.257Z,7.90
2019-05-15T16:17:40.345Z,5.95
2019-05-15T16:20:11.074Z,9.73
2019-05-15T16:22:42.939Z,9.35
2019-05-15T16:25:10.951Z,6.33
2019-05-15T16:27:40.104Z,8.93
2019-05-15T16:30:10.391Z,7.25
2019-05-15T16:32:41.029Z,10.68
2019-05-15T16:35:10.552Z,6.20
2019-05-15T16:37:40.056Z,6.33
2019-05-15T16:40:09.432Z,5.70
2019-05-15T16:42:38.817Z,6.65
2019-05-15T16:45:09.721Z,6.40
2019-05-15T16:47:39.912Z,6.60
2019-05-15T16:50:09.998Z,8.03
2019-05-15T16:52:39.234Z,6.33
2019-05-15T16:55:09.794Z,5.78
2019-05-15T16:57:39.208Z,5.87
2019-05-15T17:00:09.945Z,5.58
2019-05-15T17:02:39.929Z,7.20
2019-05-15T17:05:10.161Z,7.20
2019-05-15T17:07:39.705Z,5.72
2019-05-15T17:10:09.248Z,7.53
2019-05-15T17:12:39.084Z,8.38
2019-05-15T17:15:10.064Z,8.80
2019-05-15T17:17:39.976Z,6.65
2019-05-15T17:20:10.345Z,7.10
2019-05-15T17:22:39.673Z,5.70
2019-05-15T17:25:09.738Z,10.18
2019-05-15T17:27:38.737Z,9.65
2019-05-15T17:30:09.937Z,9.10
2019-05-15T17:32:40.041Z,8.30
2019-05-15T17:35:10.251Z,9.20
2019-05-15T17:37:39.864Z,8.20
2019-05-15T17:40:09.832Z,9.33
2019-05-15T17:42:39.310Z,9.43
2019-05-15T17:45:09.343Z,8.33
2019-05-15T17:47:39.925Z,9.93
2019-05-15T17:50:11.737Z,6.45
2019-05-15T17:52:40.729Z,11.48
2019-05-15T17:55:10.446Z,9.18
2019-05-15T17:57:40.113Z,8.78
2019-05-15T18:00:12.520Z,9.05
2019-05-15T18:02:40.951Z,11.45
2019-05-15T18:05:10.658Z,10.25
2019-05-15T18:07:40.064Z,8.40
2019-05-15T18:10:09.696Z,8.65
2019-05-15T18:12:39.137Z,7.78
2019-05-15T18:15:09.423Z,9.18
2019-05-15T18:17:48.208Z,5.45
2019-05-15T18:20:29.896Z,6.60
2019-05-15T18:22:59.446Z,6.28
2019-05-15T18:25:28.681Z,5.92
2019-05-15T18:27:59.131Z,5.92
2019-05-15T18:30:28.739Z,9.70
2019-05-15T18:32:58.878Z,6.05
2019-05-15T18:35:29.507Z,6.92
2019-05-15T18:37:59.267Z,6.00
2019-05-15T18:40:28.248Z,6.60
2019-05-15T18:42:59.222Z,6.00
2019-05-15T18:45:28.949Z,5.33
2019-05-15T18:47:58.886Z,6.33
2019-05-15T18:50:28.564Z,5.75
2019-05-15T18:52:58.554Z,6.58
2019-05-15T18:55:28.090Z,10.08
2019-05-15T18:57:58.481Z,7.22
2019-05-15T19:00:29.535Z,8.15
2019-05-15T19:02:59.430Z,6.58
2019-05-15T19:05:28.879Z,7.95
2019-05-15T19:07:59.528Z,8.75
2019-05-15T19:10:28.881Z,9.35
2019-05-15T19:12:58.497Z,7.10
2019-05-15T19:15:28.759Z,8.25
2019-05-15T19:17:58.812Z,7.08
2019-05-15T19:20:28.298Z,7.37
2019-05-15T19:22:59.030Z,11.45
2019-05-15T19:25:28.772Z,10.98
2019-05-15T19:27:57.750Z,8.88
2019-05-15T19:30:28.658Z,8.43
2019-05-15T19:32:58.564Z,6.15
2019-05-15T19:35:28.169Z,7.60
2019-05-15T19:37:58.695Z,6.08
2019-05-15T19:40:28.606Z,7.20
2019-05-15T19:42:59.116Z,9.38
2019-05-15T19:45:28.800Z,10.55
2019-05-15T19:47:58.836Z,6.58
2019-05-15T19:50:28.735Z,11.03
2019-05-15T19:52:59.111Z,8.85
2019-05-15T19:55:29.104Z,4.78
2019-05-15T19:57:58.955Z,12.25
2019-05-15T20:00:28.918Z,10.45
2019-05-15T20:02:59.400Z,10.53
2019-05-15T20:05:48.711Z,8.65
2019-05-15T20:08:18.458Z,8.88
2019-05-15T20:10:48.032Z,5.65
2019-05-15T20:13:18.355Z,9.13
2019-05-15T20:15:48.646Z,6.78
2019-05-15T20:18:19.856Z,6.40
2019-05-15T20:20:49.512Z,7.87
2019-05-15T20:23:19.928Z,5.97
2019-05-15T20:25:49.977Z,11.55
2019-05-15T20:28:19.229Z,8.48
2019-05-15T20:30:49.033Z,8.80
2019-05-15T20:33:18.433Z,4.83
2019-05-15T20:35:48.284Z,5.58
2019-05-15T20:38:19.297Z,8.70
2019-05-15T20:40:49.186Z,5.75
2019-05-15T20:43:18.833Z,4.62
2019-05-15T20:45:51.857Z,7.65
2019-05-15T20:48:21.858Z,7.17
2019-05-15T20:50:51.297Z,7.45
2019-05-15T20:53:23.688Z,6.85
2019-05-15T20:55:53.680Z,5.70
2019-05-15T20:58:23.176Z,8.80
2019-05-15T21:00:53.818Z,7.00
2019-05-15T21:03:25.056Z,4.95
2019-05-15T21:06:08.701Z,10.30
2019-05-15T21:08:39.011Z,6.50
2019-05-15T21:11:11.793Z,7.85
2019-05-15T21:13:43.288Z,12.33
2019-05-15T21:16:14.521Z,8.25
2019-05-15T21:18:44.217Z,15.78
2019-05-15T21:21:18.859Z,12.88
2019-05-15T21:23:49.184Z,6.95
2019-05-15T21:26:19.394Z,7.00
2019-05-15T21:28:49.456Z,6.05
2019-05-15T21:31:22.013Z,8.43
2019-05-15T21:33:53.265Z,6.22
2019-05-15T21:36:28.195Z,10.53
2019-05-15T21:39:00.544Z,13.70
2019-05-15T21:41:30.465Z,10.88
2019-05-15T21:44:00.791Z,8.35
2019-05-15T21:46:30.793Z,14.50
2019-05-15T21:49:01.338Z,9.15
2019-05-15T21:51:33.616Z,11.25
2019-05-15T21:54:06.360Z,13.30
2019-05-15T21:56:39.472Z,14.80
2019-05-15T21:59:09.417Z,10.10
2019-05-15T22:01:39.960Z,6.80
2019-05-15T22:04:11.161Z,8.33
2019-05-15T22:06:42.393Z,6.50
2019-05-15T22:09:15.665Z,6.33
2019-05-15T22:11:49.786Z,9.53
2019-05-15T22:14:24.576Z,11.45
2019-05-15T22:16:59.741Z,13.43
2019-05-15T22:19:30.265Z,12.33
2019-05-15T22:22:01.763Z,14.78
2019-05-15T22:24:35.108Z,15.55
2019-05-15T22:27:04.425Z,8.73
2019-05-15T22:29:34.064Z,10.20
2019-05-15T22:32:03.472Z,16.52
2019-05-15T22:34:33.283Z,12.95
2019-05-15T22:37:02.673Z,10.85
2019-05-15T22:39:31.953Z,14.05
2019-05-15T22:42:01.032Z,12.68
2019-05-15T22:44:30.528Z,20.15
2019-05-15T22:47:00.482Z,10.40
2019-05-15T22:49:30.200Z,16.50
2019-05-15T22:51:59.632Z,14.05
2019-05-15T22:54:29.761Z,12.93
2019-05-15T22:56:59.464Z,8.90
2019-05-15T22:59:29.111Z,5.60
2019-05-15T23:01:58.838Z,12.13
2019-05-15T23:04:28.681Z,15.83
2019-05-15T23:06:58.323Z,13.45
2019-05-15T23:09:28.403Z,19.82
2019-05-15T23:11:59.314Z,21.35
2019-05-15T23:14:30.200Z,19.15
2019-05-15T23:16:59.881Z,14.85
2019-05-15T23:19:29.305Z,19.37
2019-05-15T23:21:59.172Z,21.55
2019-05-15T23:24:28.664Z,15.75
2019-05-15T23:26:58.372Z,14.07
2019-05-15T23:29:28.297Z,15.58
2019-05-15T23:31:58.382Z,15.95
2019-05-15T23:34:28.065Z,14.40
2019-05-15T23:36:57.742Z,15.72
2019-05-15T23:39:27.104Z,13.10
2019-05-15T23:41:58.345Z,15.20
2019-05-15T23:44:27.751Z,17.65
2019-05-15T23:46:59.552Z,12.47
2019-05-15T23:49:28.699Z,11.88
2019-05-15T23:51:58.298Z,15.25
2019-05-15T23:54:27.948Z,16.82
2019-05-15T23:56:58.379Z,15.03
2019-05-15T23:59:28.202Z,12.78
